Time;durP1;ratioP1;P1;durP2;ratioP2;P2;SDS_P1;SDS_P2;PMS_P1;PMS_P2;Temp;Humidity;BMP_temperature;BMP_pressure;BME280_temperature;BME280_humidity;BME280_pressure;Samples;Min_cycle;Max_cycle;Signal;HPM_P1;HPM_P2
2021/05/24 11:06:13;;;;;;;2.20;1.23;;;;;;;16.70;63.27;95090.09;1058715;27;20318;-81
2021/05/24 11:06:44;;;;;;;2.00;1.08;;;;;;;16.99;62.27;95115.13;1049044;28;20041;-81
2021/05/24 11:07:46;;;;;;;1.80;1.08;;;;;;;16.66;63.23;95126.47;1040599;28;20084;-81
2021/05/24 11:08:26;;;;;;;1.73;0.93;;;;;;;16.63;63.88;95095.56;1040503;28;20026;-78
2021/05/24 11:09:01;;;;;;;2.30;1.10;;;;;;;16.82;63.00;95111.53;1039046;28;20041;-82
2021/05/24 11:09:39;;;;;;;1.88;1.13;;;;;;;16.85;63.72;95113.78;1036641;28;20487;-82
2021/05/24 11:10:18;;;;;;;5.38;1.75;;;;;;;16.96;63.31;95118.28;1037123;28;20029;-82
2021/05/24 11:10:49;;;;;;;3.25;1.00;;;;;;;16.81;63.24;95091.13;1044268;28;20025;-83
2021/05/24 11:11:25;;;;;;;1.20;0.90;;;;;;;16.83;63.61;95115.84;1039826;28;20494;-80
2021/05/24 11:11:56;;;;;;;2.33;1.20;;;;;;;16.84;63.65;95106.78;1040339;28;20075;-80
2021/05/24 11:12:30;;;;;;;1.70;1.00;;;;;;;16.72;63.62;95112.94;1039852;28;20463;-80
2021/05/24 11:13:07;;;;;;;1.65;1.05;;;;;;;16.69;64.23;95113.41;1040467;28;20017;-80
2021/05/24 11:13:38;;;;;;;1.83;0.95;;;;;;;16.76;64.15;95108.72;1040568;28;20022;-81
2021/05/24 11:15:09;;;;;;;1.48;1.00;;;;;;;16.65;64.86;95114.09;1032340;28;20747;-81
2021/05/24 11:16:24;;;;;;;3.38;1.48;;;;;;;16.50;64.98;95088.59;1066152;27;20374;-81
2021/05/24 11:16:58;;;;;;;1.55;1.00;;;;;;;16.60;64.67;95088.03;1048738;28;20029;-80
2021/05/24 11:18:12;;;;;;;2.90;1.30;;;;;;;16.61;64.59;95088.81;1048484;28;20024;-82
2021/05/24 11:18:44;;;;;;;1.67;1.10;;;;;;;16.86;64.26;95104.66;1040810;28;20062;-80
2021/05/24 11:19:19;;;;;;;2.10;0.93;;;;;;;16.97;63.91;95095.78;1043759;28;20018;-82
2021/05/24 11:19:50;;;;;;;1.65;0.98;;;;;;;16.90;63.23;95077.16;1042101;28;20121;-83
2021/05/24 11:20:29;;;;;;;1.92;1.10;;;;;;;16.95;63.49;95097.91;1044379;28;20021;-83
2021/05/24 11:21:25;;;;;;;2.83;1.17;;;;;;;17.03;63.53;95076.03;1044837;28;20025;-83
2021/05/24 11:22:22;;;;;;;2.78;1.20;;;;;;;17.14;63.24;95091.31;1036400;28;20033;-81
2021/05/24 11:24:39;;;;;;;6.82;1.20;;;;;;;16.88;64.21;95059.66;1043494;28;20029;-80
2021/05/24 11:25:49;;;;;;;1.70;1.15;;;;;;;17.28;63.53;95077.63;1044532;28;20108;-82
2021/05/24 11:26:19;;;;;;;1.77;1.00;;;;;;;17.04;63.67;95084.94;1036217;28;20121;-79
2021/05/24 11:27:09;;;;;;;1.88;1.05;;;;;;;17.27;63.55;95075.97;1037775;28;20026;-80
2021/05/24 11:28:10;;;;;;;1.65;1.10;;;;;;;17.43;63.61;95080.56;1044543;28;20033;-84
2021/05/24 11:28:51;;;;;;;3.00;1.00;;;;;;;17.40;63.44;95067.66;1044886;28;20025;-81
2021/05/24 11:29:22;;;;;;;2.42;1.52;;;;;;;17.30;63.05;95049.47;1049958;28;20088;-80
2021/05/24 11:29:53;;;;;;;3.10;1.10;;;;;;;17.28;63.00;95037.38;1040758;28;20022;-82
2021/05/24 11:30:27;;;;;;;2.40;1.13;;;;;;;17.46;63.16;95074.72;1042821;28;20032;-80
2021/05/24 11:31:26;;;;;;;2.22;1.17;;;;;;;17.54;63.12;95070.84;1040101;28;20511;-80
2021/05/24 11:31:57;;;;;;;3.08;1.40;;;;;;;17.50;62.76;95062.47;1049628;28;20051;-80
2021/05/24 11:32:28;;;;;;;2.55;1.20;;;;;;;17.15;62.75;95000.88;1036566;28;20032;-81
2021/05/24 11:32:59;;;;;;;1.83;1.17;;;;;;;17.30;63.31;95054.84;1048988;28;20108;-82
2021/05/24 11:33:40;;;;;;;5.55;1.40;;;;;;;16.84;64.75;95016.41;1040697;28;20031;-81
2021/05/24 11:34:13;;;;;;;2.58;1.35;;;;;;;17.00;65.27;95041.66;1036884;28;20038;-84
2021/05/24 11:34:44;;;;;;;2.88;1.40;;;;;;;17.34;64.75;95069.41;1041614;28;20033;-81
2021/05/24 11:35:27;;;;;;;4.50;1.17;;;;;;;17.35;64.30;95048.75;1049302;28;20020;-84
2021/05/24 11:35:58;;;;;;;1.88;1.10;;;;;;;17.11;64.14;94992.50;1045973;28;20025;-86
2021/05/24 11:36:29;;;;;;;4.03;1.30;;;;;;;17.62;63.82;95065.06;1045649;28;20502;-87
2021/05/24 11:37:01;;;;;;;1.95;1.10;;;;;;;17.52;64.18;95049.59;1044109;28;20033;-83
2021/05/24 11:37:52;;;;;;;2.88;1.55;;;;;;;17.65;64.11;95059.22;1043071;28;20032;-85
2021/05/24 11:38:27;;;;;;;1.52;1.17;;;;;;;17.44;64.03;95027.72;1043823;28;20041;-82
2021/05/24 11:39:09;;;;;;;2.67;1.27;;;;;;;17.00;64.45;94960.34;1046893;28;20024;-82
2021/05/24 11:39:56;;;;;;;3.30;1.23;;;;;;;17.77;63.74;95051.09;1044541;28;20044;-84
2021/05/24 11:40:26;;;;;;;2.55;1.23;;;;;;;17.50;63.27;95030.25;1044426;28;20021;-84
2021/05/24 11:41:11;;;;;;;2.47;1.10;;;;;;;17.62;63.38;95042.78;1040645;28;20033;-84
2021/05/24 11:41:53;;;;;;;1.33;0.93;;;;;;;17.55;63.32;95028.69;1040142;28;20026;-84
2021/05/24 11:42:24;;;;;;;2.17;0.98;;;;;;;17.74;63.01;95059.63;1043634;28;20112;-85
2021/05/24 11:43:08;;;;;;;1.60;1.10;;;;;;;16.91;64.28;94994.81;1048559;28;20027;-85
2021/05/24 11:43:41;;;;;;;3.10;1.17;;;;;;;17.02;64.46;94999.31;1044448;28;20024;-84
2021/05/24 11:44:12;;;;;;;1.60;1.00;;;;;;;17.58;64.12;95060.44;1048502;28;20013;-83
2021/05/24 11:44:48;;;;;;;1.67;1.08;;;;;;;17.48;64.06;95028.84;1047965;28;20074;-83
2021/05/24 11:45:22;;;;;;;2.50;1.10;;;;;;;17.70;63.80;95055.81;1040818;28;20093;-83
2021/05/24 11:45:52;;;;;;;1.70;1.02;;;;;;;17.64;63.82;95037.97;1050604;28;20100;-84
2021/05/24 11:46:23;;;;;;;1.65;1.13;;;;;;;17.67;63.75;95043.66;1048686;28;20017;-84
2021/05/24 11:46:57;;;;;;;3.85;1.38;;;;;;;17.70;63.75;95031.63;1048796;28;20009;-84
2021/05/24 11:47:29;;;;;;;2.13;1.10;;;;;;;17.61;63.96;95033.06;1040620;28;20025;-83
2021/05/24 11:48:00;;;;;;;2.03;1.05;;;;;;;17.64;63.80;95035.28;1044950;28;20097;-86
2021/05/24 11:48:42;;;;;;;1.88;1.10;;;;;;;17.76;63.78;95040.59;1041068;28;20017;-83
2021/05/24 11:49:13;;;;;;;2.63;1.23;;;;;;;17.67;63.66;95011.44;1040813;28;20052;-85
2021/05/24 11:50:04;;;;;;;2.58;1.33;;;;;;;17.94;63.79;95042.25;1040555;28;20073;-82
2021/05/24 11:50:35;;;;;;;2.85;1.35;;;;;;;17.96;63.08;95029.41;1052778;28;20062;-83
2021/05/24 11:51:07;;;;;;;2.50;1.40;;;;;;;18.06;62.91;95035.75;1044189;28;20017;-82
2021/05/24 11:51:38;;;;;;;4.57;1.27;;;;;;;18.06;62.48;95024.16;1040670;28;20069;-82
2021/05/24 11:52:10;;;;;;;2.28;1.23;;;;;;;18.05;62.72;95041.34;1052800;28;20020;-82
2021/05/24 11:52:41;;;;;;;2.67;1.20;;;;;;;18.19;62.57;95031.88;1044964;28;20010;-84
2021/05/24 11:53:15;;;;;;;3.03;1.23;;;;;;;18.25;61.86;95028.22;1044540;28;20482;-84
2021/05/24 11:54:20;;;;;;;3.65;1.25;;;;;;;18.46;61.66;95036.53;1053032;28;20069;-83
2021/05/24 11:54:52;;;;;;;1.50;1.00;;;;;;;18.23;61.77;94981.13;1041428;28;20014;-82
2021/05/24 11:55:23;;;;;;;3.20;1.48;;;;;;;18.29;61.91;95007.03;1044352;28;20104;-85
2021/05/24 11:55:53;;;;;;;3.15;1.50;;;;;;;18.45;61.45;95021.50;1040784;28;20020;-84
2021/05/24 11:56:24;;;;;;;4.55;1.33;;;;;;;18.32;61.72;95024.53;1044885;28;20039;-86
2021/05/24 11:56:57;;;;;;;2.38;1.20;;;;;;;18.37;61.88;95003.09;1045049;28;20017;-83
2021/05/24 11:57:32;;;;;;;2.63;1.45;;;;;;;18.57;61.38;95006.06;1041077;28;20017;-83
2021/05/24 11:58:02;;;;;;;2.80;1.33;;;;;;;18.51;60.33;94995.47;1043563;28;20012;-84
2021/05/24 11:58:55;;;;;;;2.58;1.20;;;;;;;18.87;59.94;95023.66;1048983;28;20023;-84
2021/05/24 11:59:27;;;;;;;3.28;1.13;;;;;;;18.56;61.16;95009.00;1048204;28;20056;-84
2021/05/24 11:59:57;;;;;;;2.50;1.27;;;;;;;18.61;61.00;95007.16;1044598;28;20072;-82
2021/05/24 12:00:30;;;;;;;2.55;1.20;;;;;;;18.37;61.59;95006.59;1048759;28;20088;-84
2021/05/24 12:01:03;;;;;;;3.38;1.30;;;;;;;18.39;61.46;94993.72;1048811;28;20065;-84
2021/05/24 12:01:34;;;;;;;4.30;1.30;;;;;;;18.57;61.65;95008.75;1053399;28;20021;-83
2021/05/24 12:02:05;;;;;;;3.53;1.40;;;;;;;18.66;61.16;95003.75;1053216;28;20084;-84
2021/05/24 12:02:36;;;;;;;6.70;1.50;;;;;;;18.63;59.98;95005.03;1040595;28;20493;-82
2021/05/24 12:03:06;;;;;;;1.58;1.17;;;;;;;18.53;60.19;94994.19;1040353;28;20010;-83
2021/05/24 12:03:46;;;;;;;1.70;1.10;;;;;;;18.60;59.61;95000.19;1048705;28;20017;-83
2021/05/24 12:04:20;;;;;;;;;;;;;;;18.63;60.04;95002.34;1045187;28;20021;-83
2021/05/24 12:04:51;;;;;;;1.80;1.10;;;;;;;18.63;60.81;94998.84;1040719;28;19908;-82
2021/05/24 12:05:22;;;;;;;1.20;1.10;;;;;;;18.41;60.71;94985.44;1044734;28;20028;-83
2021/05/24 12:05:56;;;;;;;2.20;1.20;;;;;;;18.55;60.78;94996.59;1048795;28;20019;-82
2021/05/24 12:06:29;;;;;;;3.53;1.20;;;;;;;18.07;61.12;94959.41;1044744;28;20028;-84
2021/05/24 12:07:03;;;;;;;3.35;1.10;;;;;;;18.43;60.24;95005.59;1044768;28;20021;-82
2021/05/24 12:07:35;;;;;;;3.45;1.42;;;;;;;18.31;60.54;94975.34;1048850;28;20017;-83
2021/05/24 12:08:06;;;;;;;2.72;1.27;;;;;;;18.23;60.38;94979.25;1048623;28;20024;-84
2021/05/24 12:08:41;;;;;;;2.83;1.13;;;;;;;18.30;60.45;94976.38;1048877;28;20069;-84
2021/05/24 12:09:12;;;;;;;1.55;1.20;;;;;;;18.33;60.46;94997.41;1044216;28;20104;-85
2021/05/24 12:09:49;;;;;;;1.75;0.82;;;;;;;18.22;60.45;95009.91;1048733;28;20025;-84
2021/05/24 12:10:23;;;;;;;5.32;1.00;;;;;;;18.18;60.83;95010.63;1044742;28;20508;-85
2021/05/24 12:11:00;;;;;;;2.35;1.17;;;;;;;18.06;61.02;94981.16;1040418;28;20017;-83
2021/05/24 12:11:32;;;;;;;1.75;1.02;;;;;;;18.13;61.26;94995.25;1044725;28;20105;-81
2021/05/24 12:12:08;;;;;;;2.22;1.20;;;;;;;18.13;60.92;94989.88;1044748;28;20453;-82
2021/05/24 12:12:39;;;;;;;3.80;1.30;;;;;;;17.96;61.31;94970.28;1044578;28;20096;-84
2021/05/24 12:13:10;;;;;;;1.73;1.10;;;;;;;18.08;61.01;94989.81;1040077;28;20022;-83
2021/05/24 12:14:11;;;;;;;1.40;1.00;;;;;;;18.08;61.51;94990.63;1048714;28;20023;-83
2021/05/24 12:14:43;;;;;;;2.15;0.90;;;;;;;17.96;61.57;94976.47;1044116;28;20017;-84
2021/05/24 12:15:16;;;;;;;2.78;1.20;;;;;;;17.99;61.10;94984.03;1044766;28;20017;-84
2021/05/24 12:15:46;;;;;;;3.65;1.05;;;;;;;17.90;60.90;94993.56;1048498;28;20471;-84
2021/05/24 12:16:17;;;;;;;2.25;1.10;;;;;;;17.81;61.50;94982.38;1044515;28;20025;-84
2021/05/24 12:16:48;;;;;;;1.73;1.00;;;;;;;17.74;61.97;94989.78;1044626;28;20120;-84
2021/05/24 12:17:22;;;;;;;1.38;0.90;;;;;;;17.34;62.10;94924.47;1049000;28;20131;-84
2021/05/24 12:17:53;;;;;;;2.13;0.93;;;;;;;17.46;62.11;94937.00;1041027;28;20025;-85
2021/05/24 12:18:28;;;;;;;2.45;1.00;;;;;;;17.76;62.20;94966.19;1040755;28;20471;-86
2021/05/24 12:19:00;;;;;;;2.45;1.35;;;;;;;17.47;62.74;94930.59;1038103;28;20046;-84
2021/05/24 12:19:30;;;;;;;1.90;1.10;;;;;;;17.86;63.25;95008.56;1045656;28;20029;-84
2021/05/24 12:20:05;;;;;;;2.15;1.00;;;;;;;17.81;63.63;95003.06;1045553;28;20021;-82
2021/05/24 12:20:35;;;;;;;1.75;1.00;;;;;;;17.93;63.72;94989.59;1036946;28;20026;-83
2021/05/24 12:21:06;;;;;;;2.55;1.20;;;;;;;17.59;63.49;94919.75;1041443;28;20025;-84
2021/05/24 12:21:41;;;;;;;3.53;1.25;;;;;;;18.21;63.45;94997.50;1045456;28;20017;-83
2021/05/24 12:22:13;;;;;;;2.55;1.23;;;;;;;18.12;63.85;94966.75;1045169;28;20115;-84
2021/05/24 12:22:45;;;;;;;3.90;1.15;;;;;;;18.08;64.15;94961.06;1045551;28;20490;-84
2021/05/24 12:23:16;;;;;;;1.90;1.20;;;;;;;17.93;64.59;94960.84;1041622;28;20025;-83
2021/05/24 12:23:49;;;;;;;1.80;1.35;;;;;;;17.83;63.79;94923.84;1052807;28;20032;-84
2021/05/24 12:24:20;;;;;;;2.03;1.20;;;;;;;18.24;63.78;94980.88;1048520;28;20055;-84
2021/05/24 12:24:51;;;;;;;6.47;1.40;;;;;;;18.04;63.29;94949.19;1040815;28;20018;-84
2021/05/24 12:25:24;;;;;;;3.33;1.20;;;;;;;18.42;62.85;94993.22;1048378;28;20549;-83
2021/05/24 12:25:54;;;;;;;2.30;1.00;;;;;;;18.25;61.92;94989.75;1048568;28;20028;-83
2021/05/24 12:26:25;;;;;;;2.83;1.40;;;;;;;17.83;62.83;94923.84;1036260;28;20446;-84
2021/05/24 12:26:57;;;;;;;4.15;1.38;;;;;;;18.15;62.62;94977.00;1040184;28;20058;-85
2021/05/24 12:27:27;;;;;;;2.67;1.10;;;;;;;17.88;62.79;94937.38;1039653;28;20069;-83
2021/05/24 12:27:58;;;;;;;3.03;1.20;;;;;;;18.07;62.74;94969.38;1049664;28;20024;-83
2021/05/24 12:28:29;;;;;;;1.40;0.90;;;;;;;18.16;62.76;94967.06;1045871;28;20032;-85
2021/05/24 12:29:00;;;;;;;2.33;1.20;;;;;;;18.29;61.83;94966.72;1040156;28;20021;-84
2021/05/24 12:29:35;;;;;;;3.58;1.20;;;;;;;18.30;62.10;94962.94;1045885;28;20017;-84
2021/05/24 12:30:08;;;;;;;1.00;0.80;;;;;;;18.39;60.83;94982.16;1038136;28;20022;-84
2021/05/24 12:30:44;;;;;;;3.17;1.10;;;;;;;17.97;62.81;94948.53;1038114;28;20013;-85
2021/05/24 12:31:14;;;;;;;1.75;0.98;;;;;;;18.04;62.93;94959.94;1037841;28;20109;-86
2021/05/24 12:31:46;;;;;;;1.95;0.95;;;;;;;17.60;63.33;94922.19;1042003;28;20016;-86
2021/05/24 12:32:32;;;;;;;1.90;0.80;;;;;;;18.04;63.30;94994.03;1038609;28;20018;-85
2021/05/24 12:33:05;;;;;;;4.32;1.20;;;;;;;17.98;62.97;94979.72;1046716;28;20017;-87
2021/05/24 12:33:36;;;;;;;1.88;1.08;;;;;;;18.04;63.00;94991.34;1038438;28;20024;-87
2021/05/24 12:34:06;;;;;;;2.08;0.90;;;;;;;17.85;62.91;94991.59;1042311;28;20068;-87
2021/05/24 12:34:43;;;;;;;4.22;1.40;;;;;;;17.55;62.96;94937.41;1042432;28;20021;-85
2021/05/24 12:35:24;;;;;;;2.92;1.10;;;;;;;17.38;62.41;94889.09;1042173;28;20112;-83
2021/05/24 12:36:02;;;;;;;2.08;1.00;;;;;;;17.74;62.34;94960.25;1042078;28;20017;-85
2021/05/24 12:37:42;;;;;;;1.13;0.93;;;;;;;17.51;62.86;94897.63;1038183;28;20026;-86
2021/05/24 12:38:28;;;;;;;2.40;1.20;;;;;;;17.60;62.73;94919.50;1036165;28;20089;-85
2021/05/24 12:39:03;;;;;;;2.30;0.98;;;;;;;17.22;63.06;94877.31;1035817;28;20025;-86
2021/05/24 12:39:35;;;;;;;2.30;1.15;;;;;;;17.65;63.97;94940.25;1043994;28;20022;-85
2021/05/24 12:40:10;;;;;;;1.83;1.00;;;;;;;17.81;63.73;94955.53;1037371;28;20073;-85
2021/05/24 12:40:41;;;;;;;2.97;1.00;;;;;;;17.55;63.39;94907.88;1046577;28;20021;-85
2021/05/24 12:41:11;;;;;;;3.58;1.13;;;;;;;17.34;63.34;94881.50;1050986;28;20016;-87
2021/05/24 12:41:43;;;;;;;2.38;1.15;;;;;;;17.51;63.38;94919.09;1050848;28;20020;-85
2021/05/24 12:42:13;;;;;;;1.55;0.90;;;;;;;17.63;63.74;94931.63;1045990;28;20024;-85
2021/05/24 12:42:44;;;;;;;3.67;1.10;;;;;;;17.22;63.92;94874.63;1040060;28;20013;-84
2021/05/24 12:43:14;;;;;;;1.85;0.82;;;;;;;17.28;64.81;94884.38;1038045;28;20018;-87
2021/05/24 12:43:50;;;;;;;2.75;1.17;;;;;;;17.37;65.07;94904.38;1037947;28;20538;-83
2021/05/24 12:44:22;;;;;;;2.75;1.20;;;;;;;17.81;65.00;94950.16;1037152;28;20435;-84
2021/05/24 12:44:59;;;;;;;1.55;1.05;;;;;;;17.89;64.97;94941.72;1041548;28;20110;-80
2021/05/24 12:45:30;;;;;;;1.88;0.80;;;;;;;17.83;64.08;94942.66;1037265;28;20056;-85
2021/05/24 12:46:03;;;;;;;2.08;0.90;;;;;;;17.55;64.76;94916.72;1041877;28;20024;-83
2021/05/24 12:46:39;;;;;;;1.85;0.93;;;;;;;17.66;64.93;94925.75;1041743;28;20113;-86
2021/05/24 12:47:17;;;;;;;3.10;1.30;;;;;;;17.44;65.26;94888.13;1041877;28;20464;-84
2021/05/24 12:47:48;;;;;;;1.48;1.00;;;;;;;17.61;64.97;94893.44;1047907;28;20010;-86
2021/05/24 12:48:27;;;;;;;1.60;0.90;;;;;;;17.26;65.10;94857.78;1041572;28;20026;-85
2021/05/24 12:48:58;;;;;;;2.53;1.02;;;;;;;17.74;65.46;94928.03;1045094;28;20133;-83
2021/05/24 12:49:35;;;;;;;1.70;1.17;;;;;;;17.82;65.21;94921.44;1041110;28;20021;-84
2021/05/24 12:50:13;;;;;;;2.33;1.00;;;;;;;17.58;64.71;94880.53;1045755;28;20045;-84
2021/05/24 12:50:46;;;;;;;2.55;1.20;;;;;;;17.75;65.42;94908.19;1045775;28;20029;-86
2021/05/24 12:51:20;;;;;;;3.92;1.20;;;;;;;17.82;65.52;94913.38;1045573;28;20044;-83
2021/05/24 12:51:58;;;;;;;1.75;0.82;;;;;;;17.82;64.97;94919.56;1044999;28;20021;-84
2021/05/24 12:52:28;;;;;;;2.50;1.15;;;;;;;17.45;64.75;94850.28;1038101;28;20021;-83
2021/05/24 12:53:13;;;;;;;2.65;1.27;;;;;;;17.75;64.79;94912.72;1041851;28;20029;-84
2021/05/24 12:53:56;;;;;;;1.65;1.15;;;;;;;17.80;64.98;94915.47;1042131;28;20025;-82
2021/05/24 12:54:27;;;;;;;2.03;1.20;;;;;;;17.66;65.00;94885.47;1042371;28;20039;-84
2021/05/24 12:54:58;;;;;;;1.80;1.10;;;;;;;17.17;64.68;94828.91;1038019;28;20022;-84
2021/05/24 12:55:30;;;;;;;3.75;1.20;;;;;;;17.69;64.64;94899.25;1040652;28;20021;-85
2021/05/24 12:56:06;;;;;;;4.13;1.35;;;;;;;17.53;64.50;94887.44;1038171;28;20029;-85
2021/05/24 12:56:41;;;;;;;5.05;1.25;;;;;;;17.69;64.32;94893.03;1042249;28;20021;-84
2021/05/24 12:57:13;;;;;;;3.00;1.30;;;;;;;17.60;64.45;94875.72;1046240;28;20041;-85
2021/05/24 12:57:45;;;;;;;1.13;0.80;;;;;;;17.39;64.09;94843.22;1045955;28;20066;-84
2021/05/24 12:58:17;;;;;;;2.28;0.95;;;;;;;17.81;63.45;94899.13;1042131;28;20467;-84
2021/05/24 12:58:48;;;;;;;1.90;1.02;;;;;;;17.76;64.00;94896.34;1042367;28;20394;-84
2021/05/24 12:59:20;;;;;;;2.92;1.00;;;;;;;17.85;63.89;94897.59;1041977;28;20029;-83
2021/05/24 12:59:52;;;;;;;2.38;1.15;;;;;;;17.86;64.02;94883.09;1041963;28;20370;-84
2021/05/24 13:00:23;;;;;;;2.28;1.20;;;;;;;17.98;64.50;94912.53;1046019;28;20481;-84
2021/05/24 13:00:55;;;;;;;1.60;0.85;;;;;;;17.87;64.51;94889.31;1042232;28;20033;-84
2021/05/24 13:01:30;;;;;;;2.10;1.15;;;;;;;17.92;64.80;94888.53;1046177;28;20028;-84
2021/05/24 13:02:03;;;;;;;1.42;0.90;;;;;;;18.06;64.83;94903.22;1041930;28;20052;-84
2021/05/24 13:02:34;;;;;;;1.40;1.08;;;;;;;17.64;64.08;94847.31;1050578;28;20016;-84
2021/05/24 13:03:05;;;;;;;1.83;1.13;;;;;;;17.45;64.41;94846.78;1037870;28;20014;-84
2021/05/24 13:03:55;;;;;;;2.53;1.00;;;;;;;17.80;64.65;94884.09;1042258;28;20072;-84
2021/05/24 13:04:26;;;;;;;1.20;1.00;;;;;;;17.81;64.14;94885.69;1048714;28;20027;-83
2021/05/24 13:05:13;;;;;;;2.10;1.02;;;;;;;17.86;63.63;94887.66;1045981;28;20028;-85
2021/05/24 13:06:06;;;;;;;2.00;0.90;;;;;;;17.84;64.13;94914.75;1042282;28;20018;-85
2021/05/24 13:06:43;;;;;;;2.13;1.05;;;;;;;17.51;64.76;94902.97;1043120;28;20029;-85
2021/05/24 13:07:18;;;;;;;2.40;1.00;;;;;;;17.76;64.94;94909.78;1046302;28;20021;-85
2021/05/24 13:07:53;;;;;;;2.03;1.02;;;;;;;17.85;64.73;94889.53;1046233;28;20459;-85
2021/05/24 13:08:23;;;;;;;2.70;1.30;;;;;;;17.75;64.25;94830.28;1037828;28;20032;-85
2021/05/24 13:09:01;;;;;;;3.22;1.40;;;;;;;17.99;64.29;94865.81;1046207;28;20127;-84
2021/05/24 13:09:33;;;;;;;2.97;1.35;;;;;;;18.28;64.55;94896.00;1046063;28;20017;-83
2021/05/24 13:10:09;;;;;;;3.50;1.63;;;;;;;18.39;64.41;94904.19;1041695;28;20048;-84
2021/05/24 13:10:40;;;;;;;2.75;1.20;;;;;;;18.29;64.35;94869.94;1037575;28;20026;-85
2021/05/24 13:11:10;;;;;;;6.63;1.73;;;;;;;18.57;64.52;94906.56;1037679;28;20025;-83
2021/05/24 13:11:48;;;;;;;3.08;1.10;;;;;;;18.10;63.18;94866.75;1050232;28;20091;-84
2021/05/24 13:12:23;;;;;;;2.28;1.10;;;;;;;17.89;62.08;94842.31;1041472;28;20027;-84
2021/05/24 13:12:59;;;;;;;1.90;1.10;;;;;;;17.89;63.69;94898.72;1046127;28;20032;-87
2021/05/24 13:13:30;;;;;;;2.58;1.10;;;;;;;17.61;64.54;94864.75;1037498;28;20029;-83
2021/05/24 13:14:05;;;;;;;2.60;1.13;;;;;;;17.86;63.39;94888.47;1045650;28;20039;-84
2021/05/24 13:14:38;;;;;;;3.03;1.10;;;;;;;17.87;63.53;94894.69;1045756;28;20109;-85
2021/05/24 13:15:11;;;;;;;2.13;0.98;;;;;;;17.74;62.42;94895.78;1049800;28;20091;-84
2021/05/24 13:15:45;;;;;;;1.52;0.90;;;;;;;17.78;63.46;94921.13;1044693;28;20024;-85
2021/05/24 13:16:38;;;;;;;2.55;1.20;;;;;;;17.98;63.37;94925.19;1032781;28;20366;-86
2021/05/24 13:17:27;;;;;;;2.88;0.80;;;;;;;17.70;63.27;94883.94;1039202;28;20084;-85
2021/05/24 13:18:47;;;;;;;4.45;1.30;;;;;;;17.74;62.76;94879.69;1039583;28;20025;-85
2021/05/24 13:19:43;;;;;;;2.25;1.05;;;;;;;17.57;62.00;94847.47;1044949;28;20028;-83
2021/05/24 13:24:15;;;;;;;2.90;1.10;;;;;;;17.57;61.44;94885.06;1037532;28;20084;-84
2021/05/24 13:28:52;;;;;;;1.42;0.90;;;;;;;17.45;61.92;94909.34;1041711;28;20020;-83
2021/05/24 13:29:55;;;;;;;1.55;0.98;;;;;;;17.58;61.50;94902.03;1044480;28;20430;-83
2021/05/24 13:30:37;;;;;;;1.67;0.98;;;;;;;17.69;61.66;94928.78;1038658;28;20029;-86
2021/05/24 13:31:08;;;;;;;1.13;0.88;;;;;;;17.30;61.70;94901.84;1041470;28;20040;-84
2021/05/24 13:31:41;;;;;;;3.33;1.20;;;;;;;17.02;61.50;94856.34;1037726;28;20025;-85
2021/05/24 13:32:24;;;;;;;2.20;1.00;;;;;;;17.22;62.01;94898.78;1041614;28;20538;-84
2021/05/24 13:32:56;;;;;;;1.38;1.00;;;;;;;16.96;62.13;94871.50;1045727;28;20028;-85
2021/05/24 13:33:37;;;;;;;1.42;0.90;;;;;;;16.92;62.13;94870.38;1041554;28;20025;-84
2021/05/24 13:34:09;;;;;;;2.25;1.00;;;;;;;17.10;62.42;94888.09;1041810;28;20028;-85
2021/05/24 13:34:41;;;;;;;3.20;1.13;;;;;;;17.24;62.40;94897.47;1041950;28;20660;-85
2021/05/24 13:35:31;;;;;;;4.55;1.77;;;;;;;17.09;62.37;94868.53;1041635;28;20133;-85
2021/05/24 13:36:23;;;;;;;2.25;1.20;;;;;;;17.35;63.18;94930.66;1042212;28;20085;-86
2021/05/24 13:36:54;;;;;;;2.15;1.17;;;;;;;17.24;62.95;94908.22;1037587;28;20030;-84
2021/05/24 13:37:25;;;;;;;3.75;0.98;;;;;;;17.20;64.24;94933.09;1045828;28;20020;-85
2021/05/24 13:37:58;;;;;;;1.60;0.90;;;;;;;17.14;64.26;94927.63;1042050;28;20028;-85
2021/05/24 13:38:28;;;;;;;1.52;0.90;;;;;;;16.78;64.91;94861.81;1038203;28;20029;-83
2021/05/24 13:39:03;;;;;;;2.55;1.30;;;;;;;16.85;65.07;94897.34;1037799;28;20024;-86
2021/05/24 13:39:33;;;;;;;2.90;1.23;;;;;;;16.67;64.28;94873.41;1037592;28;20411;-85
2021/05/24 13:40:05;;;;;;;2.40;1.08;;;;;;;16.63;65.27;94874.94;1042553;28;20048;-86
2021/05/24 13:40:36;;;;;;;1.58;1.00;;;;;;;16.64;65.30;94880.06;1038365;28;20105;-85
2021/05/24 13:41:07;;;;;;;3.20;1.00;;;;;;;16.63;65.80;94875.72;1038577;28;20065;-85
2021/05/24 13:41:38;;;;;;;1.92;1.08;;;;;;;16.82;65.00;94897.78;1038261;28;20018;-86
2021/05/24 13:42:09;;;;;;;2.25;1.33;;;;;;;17.10;64.42;94922.97;1041898;28;20048;-85
2021/05/24 13:42:41;;;;;;;3.15;0.80;;;;;;;17.10;64.16;94923.81;1041828;28;20021;-85
2021/05/24 13:43:12;;;;;;;2.05;1.08;;;;;;;16.83;64.37;94890.59;1037981;28;20105;-86
2021/05/24 13:43:43;;;;;;;2.03;0.95;;;;;;;16.99;64.67;94913.94;1045694;28;20023;-85
2021/05/24 13:44:15;;;;;;;2.97;0.80;;;;;;;17.00;64.72;94914.75;1042588;28;20040;-86
2021/05/24 13:44:46;;;;;;;2.47;1.33;;;;;;;17.28;64.57;94936.19;1050219;28;20035;-84
2021/05/24 13:45:18;;;;;;;2.25;0.82;;;;;;;17.22;64.73;94921.03;1042596;28;20021;-85
2021/05/24 13:45:49;;;;;;;2.75;1.08;;;;;;;17.13;65.27;94912.56;1041636;28;20017;-85
2021/05/24 13:46:21;;;;;;;2.33;1.05;;;;;;;17.02;65.43;94902.75;1033598;28;20552;-84
2021/05/24 13:46:52;;;;;;;3.13;1.02;;;;;;;16.86;66.54;94855.25;1037619;28;20026;-84
2021/05/24 13:47:23;;;;;;;2.78;1.85;;;;;;;17.30;65.76;94911.78;1037730;28;20089;-85
2021/05/24 13:47:53;;;;;;;2.10;1.33;;;;;;;17.14;65.29;94875.84;1041744;28;20471;-85
2021/05/24 13:48:24;;;;;;;3.25;1.58;;;;;;;17.19;66.17;94880.47;1037455;28;20018;-84
2021/05/24 13:48:55;;;;;;;4.20;2.20;;;;;;;17.49;66.51;94936.53;1041834;28;20502;-84
2021/05/24 13:49:26;;;;;;;4.72;2.00;;;;;;;17.36;66.69;94910.00;1037396;28;20022;-85
2021/05/24 13:49:56;;;;;;;8.57;3.10;;;;;;;17.38;68.02;94937.41;1045984;28;20067;-85
2021/05/24 13:50:27;;;;;;;3.22;2.10;;;;;;;17.28;66.86;94911.22;1042065;28;20025;-83
2021/05/24 13:50:57;;;;;;;5.60;2.83;;;;;;;17.08;68.94;94901.75;1037640;28;20499;-85
2021/05/24 13:51:28;;;;;;;3.70;1.90;;;;;;;17.28;67.21;94924.66;1033720;28;20026;-85
2021/05/24 13:51:59;;;;;;;3.47;1.60;;;;;;;17.41;67.47;94944.97;1041636;28;20024;-84
2021/05/24 13:52:30;;;;;;;3.15;1.30;;;;;;;17.15;67.62;94925.75;1037736;28;20033;-83
2021/05/24 13:53:02;;;;;;;5.60;1.42;;;;;;;16.68;67.70;94878.50;1041691;28;20053;-86
2021/05/24 13:53:32;;;;;;;1.92;1.23;;;;;;;17.00;68.31;94937.06;1037655;28;20022;-85
2021/05/24 13:54:03;;;;;;;2.83;1.35;;;;;;;16.80;69.22;94913.31;1037808;28;20034;-85
2021/05/24 13:54:35;;;;;;;3.03;1.40;;;;;;;16.70;71.91;94935.41;1042039;28;20559;-85
2021/05/24 13:55:07;;;;;;;3.88;1.75;;;;;;;16.40;72.05;94923.03;1037620;28;20030;-84
2021/05/24 13:55:38;;;;;;;4.00;1.45;;;;;;;16.43;72.48;94935.16;1042353;28;20025;-84
2021/05/24 13:56:09;;;;;;;4.85;1.90;;;;;;;16.01;74.28;94882.59;1042785;28;20021;-85
2021/05/24 13:56:40;;;;;;;5.10;1.60;;;;;;;16.33;73.69;94929.56;1038575;28;20022;-84
2021/05/24 13:57:10;;;;;;;8.02;1.52;;;;;;;15.73;72.55;94869.94;1038906;28;20018;-84
2021/05/24 13:57:41;;;;;;;3.60;1.58;;;;;;;15.81;73.15;94888.34;1043981;28;20013;-83
2021/05/24 13:58:12;;;;;;;2.33;1.35;;;;;;;15.97;74.41;94924.31;1048670;28;20017;-82
2021/05/24 13:58:43;;;;;;;2.50;1.17;;;;;;;15.86;73.41;94897.53;1040146;28;20467;-81
2021/05/24 13:59:13;;;;;;;3.15;1.30;;;;;;;15.89;75.03;94905.91;1044209;28;20041;-82
2021/05/24 13:59:48;;;;;;;2.22;1.60;;;;;;;15.75;74.47;94872.41;1052202;28;20115;-84
2021/05/24 14:00:24;;;;;;;3.13;1.42;;;;;;;16.10;73.81;94901.78;1046920;28;20028;-84
2021/05/24 14:00:54;;;;;;;2.92;1.35;;;;;;;16.19;74.62;94903.03;1037688;28;20022;-86
2021/05/24 14:01:25;;;;;;;4.63;1.80;;;;;;;16.24;75.56;94901.53;1041618;28;20029;-84
2021/05/24 14:01:56;;;;;;;4.50;1.50;;;;;;;15.98;76.26;94864.31;1046089;28;20025;-84
2021/05/24 14:02:27;;;;;;;3.47;1.40;;;;;;;16.31;75.45;94904.88;1041777;28;20113;-87
2021/05/24 14:02:58;;;;;;;2.78;1.70;;;;;;;16.17;76.52;94899.00;1037554;28;20025;-84
2021/05/24 14:03:29;;;;;;;3.63;1.23;;;;;;;16.01;76.89;94877.25;1041802;28;20056;-83
2021/05/24 14:04:00;;;;;;;3.65;1.55;;;;;;;15.88;78.66;94865.97;1037535;28;20022;-84